Time;durP1;ratioP1;P1;durP2;ratioP2;P2;SDS_P1;SDS_P2;PMS_P1;PMS_P2;Temp;Humidity;BMP_temperature;BMP_pressure;BME280_temperature;BME280_humidity;BME280_pressure;Samples;Min_cycle;Max_cycle;Signal;HPM_P1;HPM_P2
2022/11/16 00:02:08;;;;;;;12.02;10.68;;;12.80;91.70;;;;;;5044885;28;20039;-68
2022/11/16 00:04:34;;;;;;;12.20;10.02;;;12.70;91.80;;;;;;5049164;28;20525;-67
2022/11/16 00:07:01;;;;;;;11.82;9.85;;;12.70;91.80;;;;;;5045352;28;20112;-68
2022/11/16 00:09:31;;;;;;;11.75;9.77;;;12.70;91.90;;;;;;5033198;28;20400;-68
2022/11/16 00:12:00;;;;;;;13.15;11.07;;;12.70;91.90;;;;;;5043973;28;20013;-69
2022/11/16 00:14:28;;;;;;;12.27;10.35;;;12.70;92.00;;;;;;5035863;28;20021;-68
2022/11/16 00:16:54;;;;;;;10.77;8.85;;;12.70;92.10;;;;;;5031526;28;20021;-69
2022/11/16 00:19:20;;;;;;;14.60;11.50;;;12.80;92.10;;;;;;5036009;28;20095;-68
2022/11/16 00:21:46;;;;;;;13.27;11.52;;;12.70;92.10;;;;;;5030264;28;20534;-69
2022/11/16 00:24:17;;;;;;;13.88;11.57;;;12.80;92.20;;;;;;5037597;28;20029;-68
2022/11/16 00:26:43;;;;;;;12.57;10.18;;;12.70;92.20;;;;;;5049475;28;20382;-69
2022/11/16 00:29:20;;;;;;;12.45;10.60;;;12.80;92.10;;;;;;5047939;28;20028;-69
2022/11/16 00:31:47;;;;;;;13.40;10.80;;;12.80;92.00;;;;;;5050287;28;20172;-69
2022/11/16 00:34:12;;;;;;;13.40;10.93;;;12.80;92.00;;;;;;5047336;28;20029;-68
2022/11/16 00:36:38;;;;;;;14.43;11.02;;;12.80;92.10;;;;;;5030132;28;20040;-68
2022/11/16 00:39:03;;;;;;;11.85;9.98;;;12.80;92.00;;;;;;5033557;28;20101;-69
2022/11/16 00:41:29;;;;;;;13.75;11.13;;;12.80;91.90;;;;;;5048677;28;20025;-69
2022/11/16 00:43:55;;;;;;;13.57;11.98;;;12.80;91.90;;;;;;5049021;28;20029;-69
2022/11/16 00:46:20;;;;;;;17.40;13.40;;;12.80;92.00;;;;;;5029922;28;20029;-69
2022/11/16 00:48:46;;;;;;;12.63;10.50;;;12.80;92.00;;;;;;5029824;28;20030;-69
2022/11/16 00:51:11;;;;;;;12.25;10.00;;;12.80;92.00;;;;;;5041071;28;20032;-69
2022/11/16 00:53:37;;;;;;;13.98;11.52;;;12.80;92.00;;;;;;5040288;28;20021;-70
2022/11/16 00:56:03;;;;;;;12.82;10.00;;;12.90;92.00;;;;;;5041112;28;20025;-69
2022/11/16 00:58:29;;;;;;;14.10;11.63;;;12.90;92.00;;;;;;5029720;28;20503;-70
2022/11/16 01:00:55;;;;;;;12.77;10.75;;;12.90;92.00;;;;;;5042053;28;20013;-70
2022/11/16 01:03:20;;;;;;;11.25;9.48;;;12.80;92.00;;;;;;5040908;28;20055;-70
2022/11/16 01:05:46;;;;;;;14.20;11.75;;;12.90;91.90;;;;;;5037466;28;20404;-70
2022/11/16 01:08:12;;;;;;;14.45;12.10;;;12.90;91.90;;;;;;5043551;28;20086;-69
2022/11/16 01:10:39;;;;;;;12.50;10.38;;;12.90;91.90;;;;;;5039347;28;20038;-69
2022/11/16 01:13:05;;;;;;;13.38;10.85;;;12.90;91.90;;;;;;5033625;28;20480;-70
2022/11/16 01:15:31;;;;;;;15.88;12.65;;;12.90;91.90;;;;;;5029543;28;20053;-69
2022/11/16 01:17:56;;;;;;;16.55;13.30;;;12.90;91.90;;;;;;5040695;28;20040;-69
2022/11/16 01:20:25;;;;;;;17.27;13.60;;;12.90;91.90;;;;;;5042498;28;20029;-69
2022/11/16 01:22:51;;;;;;;14.88;12.77;;;12.90;91.90;;;;;;5037747;28;20017;-69
2022/11/16 01:25:17;;;;;;;16.13;13.27;;;12.90;92.00;;;;;;5032197;28;20100;-70
2022/11/16 01:27:43;;;;;;;13.45;11.50;;;12.90;92.20;;;;;;5046028;28;20167;-69
2022/11/16 01:30:11;;;;;;;11.18;9.02;;;12.90;92.00;;;;;;5047156;28;20024;-69
2022/11/16 01:42:43;;;;;;;12.03;9.53;;;13.10;91.50;;;;;;5041864;28;20028;-70
2022/11/16 01:45:20;;;;;;;13.80;11.57;;;13.10;91.50;;;;;;5045914;28;20279;-69
2022/11/16 01:47:46;;;;;;;12.38;10.98;;;13.10;91.60;;;;;;5044747;28;20499;-69
2022/11/16 01:50:15;;;;;;;14.27;12.00;;;13.00;91.50;;;;;;5049018;28;20071;-69
2022/11/16 01:52:51;;;;;;;12.80;11.15;;;12.90;91.70;;;;;;5042958;28;20023;-69
2022/11/16 01:55:17;;;;;;;12.23;10.93;;;12.90;91.80;;;;;;5049033;28;20083;-69
2022/11/16 01:57:44;;;;;;;13.18;11.02;;;12.90;91.90;;;;;;5040991;28;20025;-69
2022/11/16 02:00:11;;;;;;;12.82;11.18;;;12.90;91.90;;;;;;5045290;28;20094;-68
2022/11/16 02:02:37;;;;;;;11.18;9.40;;;12.80;92.10;;;;;;5045153;28;20021;-68
2022/11/16 02:05:04;;;;;;;14.90;12.02;;;12.90;92.10;;;;;;5036480;28;20526;-70
2022/11/16 02:09:52;;;;;;;12.18;10.70;;;12.80;92.10;;;;;;5028965;28;20040;-69
2022/11/16 02:10:51;;;;;;;10.60;8.70;;;12.80;92.20;;;;;;5047920;28;20041;-69
2022/11/16 02:13:32;;;;;;;12.15;10.05;;;12.90;92.20;;;;;;5037715;28;20105;-70
2022/11/16 02:16:35;;;;;;;11.32;9.40;;;12.90;92.10;;;;;;5028646;28;20079;-71
2022/11/16 02:19:13;;;;;;;12.05;9.98;;;12.90;92.00;;;;;;5033086;28;20089;-70
2022/11/16 02:21:56;;;;;;;9.93;8.57;;;12.90;92.00;;;;;;5032811;28;20017;-69
2022/11/16 02:24:43;;;;;;;10.68;9.07;;;12.90;92.00;;;;;;5048162;28;20064;-71
2022/11/16 02:27:39;;;;;;;13.10;10.30;;;12.90;92.00;;;;;;5042633;28;20025;-70
2022/11/16 02:30:05;;;;;;;10.57;9.48;;;12.90;92.00;;;;;;5027984;28;20160;-70
2022/11/16 02:32:49;;;;;;;12.15;10.23;;;12.90;92.00;;;;;;5040603;28;20118;-70
2022/11/16 02:35:27;;;;;;;11.40;9.32;;;12.90;92.10;;;;;;5047329;28;20085;-71
2022/11/16 02:37:58;;;;;;;11.38;8.82;;;12.90;92.00;;;;;;5049225;28;20036;-71
2022/11/16 02:40:29;;;;;;;12.13;10.27;;;13.00;92.00;;;;;;5050910;28;20052;-71
2022/11/16 02:43:10;;;;;;;10.55;8.82;;;13.00;91.90;;;;;;5047059;28;20032;-71
2022/11/16 02:45:41;;;;;;;10.13;9.02;;;12.90;91.90;;;;;;5032260;28;20040;-71
2022/11/16 02:48:15;;;;;;;12.00;10.07;;;12.90;91.90;;;;;;5032762;28;20037;-70
2022/11/16 02:50:42;;;;;;;14.82;10.70;;;12.90;92.00;;;;;;5049613;28;20056;-70
2022/11/16 02:53:07;;;;;;;12.55;10.20;;;12.80;92.00;;;;;;5048520;28;20100;-71
2022/11/16 02:55:34;;;;;;;11.98;10.52;;;12.90;92.00;;;;;;5051165;28;20234;-70
2022/11/16 02:58:05;;;;;;;10.05;8.30;;;12.90;92.00;;;;;;5051355;28;20028;-70
2022/11/16 03:01:01;;;;;;;8.63;7.32;;;12.80;92.00;;;;;;5045211;28;20045;-71
2022/11/16 03:04:00;;;;;;;10.60;9.32;;;12.90;92.00;;;;;;5046046;28;20436;-69
2022/11/16 03:06:31;;;;;;;9.35;8.13;;;12.90;91.90;;;;;;5045099;28;20045;-69
2022/11/16 03:09:17;;;;;;;11.85;10.20;;;12.90;91.80;;;;;;5048614;28;20036;-67
2022/11/16 03:11:59;;;;;;;10.63;8.80;;;12.90;91.80;;;;;;5030597;28;20112;-69
2022/11/16 03:14:39;;;;;;;11.82;9.82;;;12.90;91.90;;;;;;5032938;28;20018;-68
2022/11/16 03:17:12;;;;;;;12.13;9.85;;;12.90;91.90;;;;;;5031738;28;20079;-69
2022/11/16 03:19:47;;;;;;;10.38;8.98;;;13.00;91.90;;;;;;5036885;28;20071;-70
2022/11/16 03:22:23;;;;;;;12.02;10.10;;;13.00;91.90;;;;;;5042907;28;20051;-71
2022/11/16 03:24:49;;;;;;;11.00;9.20;;;12.90;91.80;;;;;;5046326;28;20145;-70
2022/11/16 03:27:17;;;;;;;12.43;10.38;;;12.90;91.90;;;;;;5041891;28;20083;-70
2022/11/16 03:29:49;;;;;;;16.75;13.27;;;12.90;91.90;;;;;;5046302;28;20024;-70
2022/11/16 03:32:27;;;;;;;10.67;8.90;;;12.90;91.90;;;;;;5033556;28;20021;-69
2022/11/16 03:35:01;;;;;;;13.48;11.10;;;12.90;91.90;;;;;;5037138;28;20006;-69
2022/11/16 03:37:27;;;;;;;13.50;10.20;;;12.90;91.90;;;;;;5040864;28;20053;-70
2022/11/16 03:39:55;;;;;;;11.60;9.00;;;12.90;92.00;;;;;;5032081;28;20029;-70
2022/11/16 03:42:22;;;;;;;10.60;9.00;;;12.90;91.90;;;;;;5047722;28;20025;-70
2022/11/16 03:44:49;;;;;;;13.88;10.82;;;13.00;91.90;;;;;;5050452;28;20082;-69
2022/11/16 03:47:15;;;;;;;13.48;10.80;;;12.90;91.90;;;;;;5040112;28;20548;-69
2022/11/16 03:49:45;;;;;;;12.13;9.65;;;12.90;91.90;;;;;;5039422;28;20488;-70
2022/11/16 03:52:11;;;;;;;10.32;9.23;;;12.90;91.90;;;;;;5042407;28;20017;-70
2022/11/16 03:54:37;;;;;;;9.48;7.85;;;13.00;91.90;;;;;;5049370;28;20400;-70
2022/11/16 03:57:02;;;;;;;9.20;8.30;;;13.00;91.80;;;;;;5038176;28;20083;-70
2022/11/16 03:59:28;;;;;;;12.68;10.93;;;13.10;91.70;;;;;;5030629;28;20084;-70
2022/11/16 04:01:54;;;;;;;10.57;9.45;;;13.00;91.60;;;;;;5034411;28;20025;-70
2022/11/16 04:28:11;;;;;;;7.90;6.97;;;13.00;91.90;;;;;;5044608;28;20143;-70
2022/11/16 04:29:08;;;;;;;9.35;8.43;;;13.10;91.80;;;;;;5049497;28;20045;-70
2022/11/16 04:39:46;;;;;;;9.20;8.23;;;13.10;91.60;;;;;;5047366;28;20040;-70
2022/11/16 04:42:18;;;;;;;8.65;7.70;;;13.20;91.60;;;;;;5040702;28;20029;-70
2022/11/16 04:47:28;;;;;;;5.03;4.50;;;13.20;91.50;;;;;;5035608;28;20036;-71
2022/11/16 04:49:54;;;;;;;3.88;2.95;;;13.20;91.30;;;;;;5035907;28;20025;-71
2022/11/16 04:52:20;;;;;;;4.15;2.45;;;13.20;91.10;;;;;;5045419;28;20033;-69
2022/11/16 04:54:45;;;;;;;3.08;2.53;;;13.10;91.00;;;;;;5048567;28;20100;-69
2022/11/16 04:57:11;;;;;;;2.88;1.98;;;13.10;91.00;;;;;;5047338;28;20035;-70
2022/11/16 04:59:36;;;;;;;3.58;1.70;;;13.00;90.80;;;;;;5047222;28;20029;-70
2022/11/16 05:02:07;;;;;;;2.53;1.90;;;13.00;90.80;;;;;;5034656;28;20034;-69
2022/11/16 05:04:38;;;;;;;3.55;1.70;;;13.00;90.80;;;;;;5037415;28;20071;-69
2022/11/16 05:07:09;;;;;;;2.17;1.70;;;13.00;90.80;;;;;;5033868;28;20022;-69
2022/11/16 05:09:43;;;;;;;2.47;1.77;;;13.10;90.70;;;;;;5046325;28;20032;-70
2022/11/16 05:12:14;;;;;;;2.83;1.80;;;13.10;90.60;;;;;;5047319;28;20025;-68
2022/11/16 05:14:41;;;;;;;2.80;1.70;;;13.00;90.50;;;;;;5048300;28;20021;-69
2022/11/16 05:17:07;;;;;;;2.53;1.80;;;13.00;90.40;;;;;;5045053;28;20025;-69
2022/11/16 05:22:17;;;;;;;2.83;1.67;;;12.90;90.30;;;;;;5049188;28;20060;-69
2022/11/16 05:24:43;;;;;;;3.90;2.03;;;12.90;90.40;;;;;;5037451;28;20056;-69
2022/11/16 05:27:12;;;;;;;3.10;1.90;;;12.90;90.30;;;;;;5039503;28;20539;-69
2022/11/16 05:29:38;;;;;;;3.30;1.67;;;12.80;90.20;;;;;;5049284;28;20021;-70
2022/11/16 05:32:05;;;;;;;2.55;1.90;;;12.80;90.20;;;;;;5038592;28;20043;-70
2022/11/16 05:34:30;;;;;;;3.67;1.90;;;12.80;90.20;;;;;;5035599;28;20051;-70
2022/11/16 05:36:57;;;;;;;3.20;1.98;;;12.80;90.20;;;;;;5037242;28;20029;-69
2022/11/16 05:39:23;;;;;;;3.17;2.00;;;12.80;90.20;;;;;;5046601;28;20483;-69
2022/11/16 05:41:48;;;;;;;2.70;1.85;;;12.80;90.20;;;;;;5045222;28;20070;-68
2022/11/16 05:44:15;;;;;;;3.53;2.35;;;12.80;90.20;;;;;;5039555;28;20434;-69
2022/11/16 05:46:41;;;;;;;3.55;2.20;;;12.80;90.10;;;;;;5041781;28;20025;-69
2022/11/16 05:49:08;;;;;;;2.67;2.00;;;12.80;90.10;;;;;;5036267;28;20480;-68
2022/11/16 05:51:34;;;;;;;2.92;2.03;;;12.70;90.00;;;;;;5036660;28;20028;-67
2022/11/16 05:54:01;;;;;;;3.15;2.47;;;12.70;90.00;;;;;;5045149;28;20475;-69
2022/11/16 05:56:26;;;;;;;3.65;2.70;;;12.70;89.90;;;;;;5038869;28;20021;-69
2022/11/16 05:58:52;;;;;;;3.47;2.63;;;12.70;89.90;;;;;;5039061;28;20021;-67
2022/11/16 06:01:18;;;;;;;4.47;3.08;;;12.70;89.90;;;;;;5030420;28;21917;-68
2022/11/16 06:03:44;;;;;;;4.30;3.15;;;12.70;89.90;;;;;;5035898;28;20025;-68
2022/11/16 06:06:09;;;;;;;4.28;3.50;;;12.70;89.80;;;;;;5045732;28;20033;-68
2022/11/16 06:08:35;;;;;;;5.55;3.70;;;12.70;89.60;;;;;;5028191;28;20566;-70
2022/11/16 06:11:05;;;;;;;4.97;4.15;;;12.70;89.70;;;;;;5036544;28;20652;-68
2022/11/16 06:13:31;;;;;;;7.30;5.40;;;12.80;89.60;;;;;;5033953;28;20044;-68
2022/11/16 06:15:58;;;;;;;7.38;4.78;;;12.70;89.60;;;;;;5039651;28;20033;-68
2022/11/16 06:18:23;;;;;;;6.10;5.00;;;12.70;89.70;;;;;;5051687;28;20028;-70
2022/11/16 06:20:49;;;;;;;7.30;4.70;;;12.70;89.80;;;;;;5049213;28;20029;-70
2022/11/16 06:23:15;;;;;;;5.68;4.90;;;12.70;89.90;;;;;;5053193;28;20020;-69
2022/11/16 06:25:41;;;;;;;9.07;6.47;;;12.60;89.90;;;;;;5048016;28;20028;-69
2022/11/16 06:28:06;;;;;;;6.43;4.63;;;12.60;90.00;;;;;;5041657;28;20057;-68
2022/11/16 06:30:32;;;;;;;6.47;4.60;;;12.60;90.10;;;;;;5042403;28;20036;-70
2022/11/16 06:32:58;;;;;;;7.53;4.18;;;12.50;90.00;;;;;;5043885;28;20490;-68
2022/11/16 06:35:23;;;;;;;6.63;4.63;;;12.50;90.10;;;;;;5050693;28;20101;-69
2022/11/16 06:37:49;;;;;;;5.20;4.00;;;12.50;90.10;;;;;;5048291;28;20472;-69
2022/11/16 06:40:15;;;;;;;8.43;4.80;;;12.50;90.10;;;;;;5047540;28;20041;-70
2022/11/16 06:42:40;;;;;;;5.18;4.38;;;12.50;90.00;;;;;;5046395;28;20407;-68
2022/11/16 06:45:06;;;;;;;5.35;4.25;;;12.40;90.00;;;;;;5047149;28;20058;-68
2022/11/16 06:47:32;;;;;;;6.43;4.72;;;12.30;90.10;;;;;;5045138;28;20109;-68
2022/11/16 06:49:57;;;;;;;5.38;3.80;;;12.30;90.10;;;;;;5049295;28;20100;-69
2022/11/16 06:52:23;;;;;;;5.43;3.78;;;12.20;90.10;;;;;;5037779;28;20029;-68
2022/11/16 06:54:48;;;;;;;4.47;3.60;;;12.20;90.20;;;;;;5044646;28;20705;-68
2022/11/16 06:57:14;;;;;;;9.88;3.72;;;12.10;90.20;;;;;;5040210;28;20029;-68
2022/11/16 06:59:40;;;;;;;8.85;3.90;;;12.10;90.20;;;;;;5045928;28;20488;-69
2022/11/16 07:02:05;;;;;;;9.52;4.70;;;12.00;90.20;;;;;;5041950;28;20116;-70
2022/11/16 07:04:31;;;;;;;6.10;3.88;;;11.90;90.20;;;;;;5045404;28;20041;-70
2022/11/16 07:06:57;;;;;;;11.48;4.03;;;11.90;90.30;;;;;;5048437;28;20468;-70
2022/11/16 07:09:22;;;;;;;7.30;3.10;;;11.80;90.30;;;;;;5048447;28;20035;-70
2022/11/16 07:11:48;;;;;;;10.20;3.47;;;11.70;90.40;;;;;;5042293;28;20143;-70
2022/11/16 07:14:14;;;;;;;6.75;3.50;;;11.80;90.40;;;;;;5051813;28;20025;-70
2022/11/16 07:16:39;;;;;;;4.25;2.78;;;11.80;90.40;;;;;;5040422;28;20064;-70
2022/11/16 07:19:05;;;;;;;8.73;3.75;;;11.70;90.40;;;;;;5046605;28;20033;-69
2022/11/16 07:21:31;;;;;;;7.25;3.10;;;11.70;90.40;;;;;;5037007;28;20048;-69
2022/11/16 07:23:57;;;;;;;11.77;3.75;;;11.70;90.50;;;;;;5044029;28;20107;-69
2022/11/16 07:26:23;;;;;;;7.55;2.90;;;11.60;90.40;;;;;;5034896;28;20033;-69
2022/11/16 07:28:48;;;;;;;5.03;2.92;;;11.60;90.40;;;;;;5038070;28;20530;-68
2022/11/16 07:31:15;;;;;;;8.25;2.88;;;11.60;90.40;;;;;;5044066;28;20033;-69
2022/11/16 07:33:41;;;;;;;3.42;2.35;;;11.50;90.40;;;;;;5044886;28;20016;-69
2022/11/16 07:36:12;;;;;;;6.22;2.60;;;11.60;90.40;;;;;;5048085;28;20919;-69
2022/11/16 07:38:38;;;;;;;4.50;2.40;;;11.60;90.40;;;;;;5030822;28;20104;-70
2022/11/16 07:41:12;;;;;;;7.45;2.78;;;11.60;90.30;;;;;;5032261;28;20121;-69
2022/11/16 07:43:39;;;;;;;5.13;2.58;;;11.60;90.20;;;;;;5031587;28;20026;-69
2022/11/16 07:46:06;;;;;;;4.35;2.42;;;11.60;90.20;;;;;;5030876;28;20028;-69
2022/11/16 07:48:32;;;;;;;4.43;2.20;;;11.60;90.20;;;;;;5053386;28;20032;-69
2022/11/16 07:51:03;;;;;;;3.30;2.05;;;11.70;90.20;;;;;;5036444;28;20040;-69
2022/11/16 07:53:29;;;;;;;4.15;2.30;;;11.70;90.20;;;;;;5031178;28;20054;-69
2022/11/16 07:55:55;;;;;;;3.05;1.92;;;11.70;90.40;;;;;;5029505;28;20396;-69
2022/11/16 07:58:22;;;;;;;4.55;2.50;;;11.80;90.10;;;;;;5042060;28;20025;-69
2022/11/16 08:00:48;;;;;;;5.90;2.80;;;11.80;90.00;;;;;;5035227;28;20036;-69
2022/11/16 08:03:14;;;;;;;4.43;2.22;;;11.80;90.00;;;;;;5035404;28;20026;-69
2022/11/16 08:05:39;;;;;;;6.70;2.90;;;11.90;90.00;;;;;;5030806;28;20037;-69
2022/11/16 08:08:05;;;;;;;4.90;2.83;;;11.80;89.90;;;;;;5030606;28;20030;-69
2022/11/16 08:10:31;;;;;;;6.20;2.78;;;11.90;89.90;;;;;;5041612;28;20016;-69
2022/11/16 08:12:56;;;;;;;6.20;2.95;;;11.90;89.80;;;;;;5036292;28;20163;-69
2022/11/16 08:15:22;;;;;;;5.65;2.65;;;12.00;89.80;;;;;;5032364;28;20033;-69
2022/11/16 08:17:48;;;;;;;8.43;2.72;;;12.00;89.70;;;;;;5047619;28;20025;-69
2022/11/16 08:20:15;;;;;;;7.88;3.70;;;12.10;89.80;;;;;;5034352;28;20106;-69
2022/11/16 08:22:41;;;;;;;6.43;2.65;;;12.00;89.50;;;;;;5030433;28;20109;-69
2022/11/16 08:25:07;;;;;;;5.68;3.50;;;12.10;89.60;;;;;;5037775;28;20452;-69
2022/11/16 08:27:32;;;;;;;7.38;3.47;;;12.10;89.40;;;;;;5049452;28;20043;-69
2022/11/16 08:29:58;;;;;;;7.90;3.58;;;12.10;89.40;;;;;;5045765;28;20025;-69
2022/11/16 08:32:24;;;;;;;4.15;2.75;;;12.20;89.30;;;;;;5033584;28;20523;-69
2022/11/16 08:34:49;;;;;;;6.05;2.95;;;12.20;89.30;;;;;;5029947;28;20511;-69
2022/11/16 08:37:16;;;;;;;8.95;3.70;;;12.20;89.10;;;;;;5035536;28;20047;-69
2022/11/16 08:39:41;;;;;;;6.25;3.53;;;12.20;89.10;;;;;;5039372;28;20082;-69
2022/11/16 08:42:07;;;;;;;5.70;3.13;;;12.20;88.90;;;;;;5031466;28;20021;-69
2022/11/16 08:44:32;;;;;;;6.53;3.40;;;12.10;88.90;;;;;;5035363;28;20036;-70
2022/11/16 08:46:58;;;;;;;7.40;3.67;;;12.20;89.00;;;;;;5052162;28;20032;-70
2022/11/16 08:49:23;;;;;;;7.25;3.30;;;12.20;88.90;;;;;;5049789;28;20025;-70
2022/11/16 08:51:49;;;;;;;5.60;2.75;;;12.20;88.80;;;;;;5043154;28;20024;-70
2022/11/16 08:54:14;;;;;;;6.65;3.67;;;12.20;88.70;;;;;;5037809;28;20025;-70
2022/11/16 08:56:40;;;;;;;12.35;5.35;;;12.30;88.60;;;;;;5039463;28;20025;-70
2022/11/16 08:59:06;;;;;;;9.48;4.43;;;12.30;88.00;;;;;;5031406;28;20025;-70
2022/11/16 09:01:32;;;;;;;5.95;3.88;;;12.20;87.90;;;;;;5032957;28;20091;-70
2022/11/16 09:03:58;;;;;;;8.63;4.00;;;12.20;88.00;;;;;;5044232;28;20449;-70
2022/11/16 09:06:25;;;;;;;5.57;3.67;;;12.30;87.90;;;;;;5032311;28;20051;-70
2022/11/16 09:08:52;;;;;;;7.32;3.40;;;12.20;87.70;;;;;;5040433;28;20033;-69
2022/11/16 09:11:20;;;;;;;9.35;4.53;;;12.20;87.80;;;;;;5042174;28;20745;-69
2022/11/16 09:13:48;;;;;;;11.55;4.57;;;12.30;87.70;;;;;;5032146;28;20033;-69
2022/11/16 09:16:15;;;;;;;10.95;4.32;;;12.30;87.40;;;;;;5028423;28;20333;-69
2022/11/16 09:18:41;;;;;;;8.00;3.85;;;12.20;87.00;;;;;;5033855;28;20037;-70
2022/11/16 09:21:07;;;;;;;6.05;3.30;;;12.20;87.40;;;;;;5038613;28;20087;-69
2022/11/16 09:23:33;;;;;;;10.18;4.30;;;12.30;87.00;;;;;;5043311;28;20017;-69
2022/11/16 09:26:03;;;;;;;10.05;4.00;;;12.30;86.80;;;;;;5031192;28;20026;-69
2022/11/16 09:28:29;;;;;;;7.43;3.75;;;12.30;86.80;;;;;;5049533;28;20033;-69
2022/11/16 09:31:00;;;;;;;8.93;3.47;;;12.30;86.30;;;;;;5039187;28;20021;-70
2022/11/16 09:33:27;;;;;;;7.40;2.75;;;12.30;86.50;;;;;;5044358;28;20032;-69
2022/11/16 09:35:53;;;;;;;11.57;3.70;;;12.30;86.70;;;;;;5039192;28;20032;-69
2022/11/16 09:38:18;;;;;;;11.45;3.60;;;12.30;86.10;;;;;;5036432;28;20480;-69
2022/11/16 09:40:46;;;;;;;9.80;3.97;;;12.30;85.90;;;;;;5039446;28;20030;-69
2022/11/16 09:43:49;;;;;;;8.65;3.30;;;12.30;85.40;;;;;;5029528;28;20029;-69
2022/11/16 09:46:55;;;;;;;9.73;3.42;;;12.30;85.40;;;;;;5029026;28;20038;-69
2022/11/16 09:49:34;;;;;;;5.95;2.90;;;12.30;85.30;;;;;;5004895;28;20042;-70
2022/11/16 09:52:04;;;;;;;8.73;3.35;;;12.30;85.30;;;;;;5041312;28;20053;-69
2022/11/16 09:54:35;;;;;;;7.35;2.92;;;12.30;85.20;;;;;;5039199;28;20037;-70
2022/11/16 09:57:06;;;;;;;6.05;2.40;;;12.30;85.20;;;;;;5033056;28;20120;-69
2022/11/16 09:59:50;;;;;;;9.02;3.10;;;12.40;85.20;;;;;;5029140;28;20037;-69
2022/11/16 10:02:25;;;;;;;7.43;2.97;;;12.50;85.10;;;;;;5045370;28;20029;-69
2022/11/16 10:04:59;;;;;;;7.20;2.53;;;12.40;84.80;;;;;;5044405;28;20025;-69
2022/11/16 10:07:34;;;;;;;8.52;3.50;;;12.50;84.60;;;;;;5037685;28;20032;-69
2022/11/16 10:09:59;;;;;;;9.38;2.92;;;12.40;83.70;;;;;;5046770;28;20064;-70
2022/11/16 10:12:30;;;;;;;7.40;2.50;;;12.40;83.80;;;;;;5048040;28;20150;-70
2022/11/16 10:15:20;;;;;;;7.40;2.35;;;12.50;83.80;;;;;;5035510;28;20052;-69
2022/11/16 10:17:54;;;;;;;6.13;2.40;;;12.50;83.90;;;;;;5042135;28;20036;-70
2022/11/16 10:20:48;;;;;;;10.27;2.85;;;12.60;83.50;;;;;;5031771;28;20522;-69
2022/11/16 10:23:40;;;;;;;9.57;2.53;;;12.60;83.20;;;;;;5038929;28;20442;-70
2022/11/16 10:26:20;;;;;;;8.05;2.33;;;12.60;82.70;;;;;;5043574;28;20029;-70
2022/11/16 10:29:13;;;;;;;9.60;2.67;;;12.70;82.80;;;;;;5040303;28;20029;-70
2022/11/16 10:32:00;;;;;;;7.75;2.17;;;12.70;82.50;;;;;;5035180;28;20025;-70
2022/11/16 10:34:36;;;;;;;5.82;2.17;;;12.70;82.00;;;;;;5034324;28;20036;-70
2022/11/16 10:37:07;;;;;;;7.22;2.42;;;12.80;82.00;;;;;;5045190;28;20285;-70
2022/11/16 10:39:33;;;;;;;8.40;2.30;;;12.80;81.70;;;;;;5033506;28;20410;-69
2022/11/16 10:42:04;;;;;;;7.60;2.55;;;12.90;81.70;;;;;;5040572;28;20013;-70
2022/11/16 10:44:40;;;;;;;7.25;2.38;;;12.90;81.30;;;;;;5035226;28;20040;-69
2022/11/16 10:47:43;;;;;;;8.82;2.33;;;13.00;81.60;;;;;;5042015;28;20560;-69
2022/11/16 10:50:45;;;;;;;8.05;2.10;;;13.10;80.70;;;;;;5037226;28;20033;-69
2022/11/16 10:53:24;;;;;;;6.20;2.42;;;13.20;80.40;;;;;;5039015;28;20037;-69
2022/11/16 10:56:13;;;;;;;8.68;2.30;;;13.20;79.90;;;;;;5030437;28;20044;-70
2022/11/16 10:58:49;;;;;;;6.95;1.80;;;13.20;79.00;;;;;;5034688;28;20026;-69
2022/11/16 11:01:27;;;;;;;7.18;2.22;;;13.10;79.10;;;;;;5031223;28;20052;-69
2022/11/16 11:03:53;;;;;;;7.68;2.83;;;13.10;78.80;;;;;;5045263;28;20035;-69
2022/11/16 11:06:22;;;;;;;6.75;1.95;;;13.10;78.90;;;;;;5040425;28;20483;-69
2022/11/16 11:08:47;;;;;;;5.30;1.83;;;13.20;79.10;;;;;;5039843;28;20025;-69
2022/11/16 11:14:08;;;;;;;9.52;1.92;;;13.30;78.50;;;;;;5040289;28;20036;-69
2022/11/16 11:16:34;;;;;;;4.68;1.95;;;13.30;78.40;;;;;;5049411;28;20021;-69
2022/11/16 11:19:27;;;;;;;6.05;2.35;;;13.40;78.50;;;;;;5046517;28;20152;-69
2022/11/16 11:21:59;;;;;;;9.15;2.67;;;13.30;78.20;;;;;;5046599;28;20537;-69
2022/11/16 11:24:26;;;;;;;7.18;2.25;;;13.30;78.10;;;;;;5038676;28;20041;-69
2022/11/16 11:26:56;;;;;;;6.40;2.22;;;13.30;78.10;;;;;;5037910;28;20018;-70
2022/11/16 11:29:35;;;;;;;7.53;2.50;;;13.30;78.30;;;;;;5045462;28;20033;-69
2022/11/16 11:32:06;;;;;;;5.70;2.50;;;13.40;78.50;;;;;;5044908;28;20032;-70
2022/11/16 11:34:38;;;;;;;5.72;1.90;;;13.40;78.40;;;;;;5031478;28;20055;-69
2022/11/16 11:37:11;;;;;;;6.18;2.45;;;13.50;78.40;;;;;;5040608;28;20014;-69
2022/11/16 11:39:37;;;;;;;7.88;2.85;;;13.60;78.20;;;;;;5057653;28;20456;-68
2022/11/16 11:42:13;;;;;;;6.63;2.58;;;13.60;77.70;;;;;;5037382;28;20098;-68
2022/11/16 11:44:43;;;;;;;7.07;2.40;;;13.70;77.20;;;;;;5040315;28;20098;-70
2022/11/16 11:47:16;;;;;;;11.15;2.90;;;13.80;76.70;;;;;;5047869;28;20021;-70
2022/11/16 11:49:51;;;;;;;6.03;3.08;;;13.90;76.50;;;;;;5034831;28;20484;-69
2022/11/16 11:52:23;;;;;;;7.35;2.35;;;15.00;74.70;;;;;;5044780;28;20086;-69
2022/11/16 11:54:51;;;;;;;;;;;16.60;70.20;;;;;;5042543;28;20373;-69
2022/11/16 11:57:20;;;;;;;7.05;3.00;;;17.70;66.10;;;;;;5043289;28;19913;-69
2022/11/16 11:59:47;;;;;;;8.25;2.83;;;18.40;63.70;;;;;;5044098;28;20479;-69
2022/11/16 12:02:39;;;;;;;7.20;2.78;;;17.70;62.40;;;;;;5039863;28;20025;-69
2022/11/16 12:05:33;;;;;;;8.02;2.58;;;16.50;64.90;;;;;;5043704;28;20040;-69
2022/11/16 12:08:05;;;;;;;5.55;2.00;;;15.70;66.40;;;;;;5033658;28;20504;-69
2022/11/16 12:10:51;;;;;;;6.90;2.40;;;15.20;68.80;;;;;;5044977;28;20087;-69
2022/11/16 12:13:40;;;;;;;8.27;2.50;;;15.60;70.00;;;;;;5032140;28;20029;-69
2022/11/16 12:16:20;;;;;;;6.38;2.40;;;16.70;66.50;;;;;;5041721;28;20044;-69
2022/11/16 12:19:20;;;;;;;5.72;2.42;;;17.70;63.20;;;;;;5044084;28;20106;-69
2022/11/16 12:22:14;;;;;;;4.10;2.00;;;17.70;62.60;;;;;;5035908;28;20032;-69
2022/11/16 12:24:49;;;;;;;6.97;2.40;;;16.80;62.90;;;;;;5040010;28;21379;-69
2022/11/16 12:27:25;;;;;;;4.40;1.73;;;15.80;64.90;;;;;;5043457;28;20103;-69
2022/11/16 12:30:15;;;;;;;5.88;2.03;;;15.30;66.20;;;;;;5038267;28;20018;-69
2022/11/16 12:32:43;;;;;;;5.85;1.80;;;16.00;67.20;;;;;;5030656;28;20032;-69
2022/11/16 12:35:27;;;;;;;5.78;2.00;;;16.40;65.10;;;;;;5037260;28;20020;-69
2022/11/16 12:38:16;;;;;;;5.78;2.03;;;15.70;65.10;;;;;;5040434;28;20029;-70
2022/11/16 12:41:01;;;;;;;7.15;1.90;;;15.20;66.50;;;;;;5044345;28;20034;-70
2022/11/16 12:43:56;;;;;;;5.10;1.83;;;15.00;67.30;;;;;;5032475;28;20697;-69
2022/11/16 12:46:49;;;;;;;5.38;1.83;;;15.10;67.40;;;;;;5040210;28;20550;-69
2022/11/16 12:49:29;;;;;;;5.28;1.70;;;15.00;67.70;;;;;;5036211;28;20660;-69
2022/11/16 12:52:20;;;;;;;4.25;1.70;;;15.20;68.20;;;;;;5038934;28;20024;-69
2022/11/16 12:54:48;;;;;;;4.13;1.60;;;16.00;66.50;;;;;;5040248;28;20031;-70
2022/11/16 12:57:29;;;;;;;5.60;1.75;;;15.90;65.90;;;;;;5045177;28;20720;-69
2022/11/16 12:59:57;;;;;;;5.38;1.55;;;16.40;65.30;;;;;;5044394;28;20100;-69
2022/11/16 13:02:31;;;;;;;5.72;1.52;;;16.50;64.30;;;;;;5044886;28;20079;-70
2022/11/16 13:05:13;;;;;;;5.90;2.22;;;16.70;63.50;;;;;;5032081;28;20017;-70
2022/11/16 13:07:48;;;;;;;5.68;1.70;;;17.00;63.00;;;;;;5039715;28;20032;-69
2022/11/16 13:10:37;;;;;;;4.70;1.52;;;16.80;62.50;;;;;;5034674;28;20091;-69
2022/11/16 13:13:10;;;;;;;4.45;1.40;;;16.80;63.10;;;;;;5040292;28;20087;-69
2022/11/16 13:15:41;;;;;;;5.85;1.80;;;16.80;63.90;;;;;;5043344;28;20099;-69
2022/11/16 13:18:12;;;;;;;5.03;1.23;;;16.50;63.70;;;;;;5042619;28;20031;-70
2022/11/16 13:20:42;;;;;;;5.43;1.40;;;16.50;64.20;;;;;;5039661;28;20060;-70
2022/11/16 13:23:15;;;;;;;4.53;1.50;;;16.40;64.70;;;;;;5038324;28;20029;-70
2022/11/16 13:26:20;;;;;;;5.90;1.80;;;15.80;64.90;;;;;;5043419;28;20068;-70
2022/11/16 13:28:55;;;;;;;3.17;1.20;;;15.40;65.90;;;;;;5036228;28;20029;-70
2022/11/16 13:31:34;;;;;;;5.15;1.67;;;15.30;66.80;;;;;;5033351;28;20040;-70
2022/11/16 13:34:06;;;;;;;7.57;1.50;;;15.30;67.00;;;;;;5040939;28;20043;-70
2022/11/16 13:36:35;;;;;;;4.18;1.55;;;15.20;67.00;;;;;;5042688;28;20025;-70
2022/11/16 13:39:05;;;;;;;4.88;1.45;;;15.00;66.90;;;;;;5041353;28;20033;-70
2022/11/16 13:41:35;;;;;;;5.00;1.50;;;15.00;67.10;;;;;;5042416;28;20044;-70
2022/11/16 13:44:18;;;;;;;4.00;1.17;;;15.00;66.90;;;;;;5041978;28;20028;-70
2022/11/16 13:46:48;;;;;;;6.00;1.40;;;14.90;66.80;;;;;;5042075;28;20151;-70
2022/11/16 13:49:31;;;;;;;2.20;1.10;;;14.90;66.50;;;;;;5042517;28;20037;-70
2022/11/16 13:52:05;;;;;;;3.72;1.20;;;14.90;66.70;;;;;;5041674;28;20512;-69
2022/11/16 13:54:34;;;;;;;2.50;1.00;;;14.80;66.40;;;;;;5045299;28;20091;-69